sensor_id;sensor_type;location;lat;lon;timestamp;P1;durP1;ratioP1;P2;durP2;ratioP2
42294;SDS011;27947;47.556;18.718;2024-01-07T00:01:38;13.25;;;9.77;;
42294;SDS011;27947;47.556;18.718;2024-01-07T00:04:03;14.00;;;9.18;;
42294;SDS011;27947;47.556;18.718;2024-01-07T00:06:29;15.43;;;9.50;;
42294;SDS011;27947;47.556;18.718;2024-01-07T00:08:54;13.93;;;8.93;;
42294;SDS011;27947;47.556;18.718;2024-01-07T00:11:19;14.55;;;9.20;;
42294;SDS011;27947;47.556;18.718;2024-01-07T00:13:45;12.32;;;9.10;;
42294;SDS011;27947;47.556;18.718;2024-01-07T00:16:10;14.07;;;9.93;;
42294;SDS011;27947;47.556;18.718;2024-01-07T00:18:35;15.45;;;10.32;;
42294;SDS011;27947;47.556;18.718;2024-01-07T00:21:00;16.48;;;10.77;;
42294;SDS011;27947;47.556;18.718;2024-01-07T00:23:26;14.32;;;10.27;;
42294;SDS011;27947;47.556;18.718;2024-01-07T00:25:51;15.23;;;10.63;;
42294;SDS011;27947;47.556;18.718;2024-01-07T00:28:16;15.93;;;10.95;;
42294;SDS011;27947;47.556;18.718;2024-01-07T00:30:42;14.57;;;10.80;;
42294;SDS011;27947;47.556;18.718;2024-01-07T00:33:07;18.02;;;11.43;;
42294;SDS011;27947;47.556;18.718;2024-01-07T00:35:32;15.93;;;11.07;;
42294;SDS011;27947;47.556;18.718;2024-01-07T00:37:57;16.88;;;11.05;;
42294;SDS011;27947;47.556;18.718;2024-01-07T00:40:23;16.20;;;11.38;;
42294;SDS011;27947;47.556;18.718;2024-01-07T00:42:48;19.15;;;11.48;;
42294;SDS011;27947;47.556;18.718;2024-01-07T00:45:14;17.13;;;11.45;;
42294;SDS011;27947;47.556;18.718;2024-01-07T00:47:40;17.15;;;11.27;;
42294;SDS011;27947;47.556;18.718;2024-01-07T00:50:06;16.05;;;11.18;;
42294;SDS011;27947;47.556;18.718;2024-01-07T00:52:31;18.08;;;11.65;;
42294;SDS011;27947;47.556;18.718;2024-01-07T00:54:56;16.70;;;11.50;;
42294;SDS011;27947;47.556;18.718;2024-01-07T00:57:22;18.23;;;11.45;;
42294;SDS011;27947;47.556;18.718;2024-01-07T00:59:47;18.13;;;11.45;;
42294;SDS011;27947;47.556;18.718;2024-01-07T01:02:13;18.95;;;12.20;;
42294;SDS011;27947;47.556;18.718;2024-01-07T01:04:39;16.98;;;11.18;;
42294;SDS011;27947;47.556;18.718;2024-01-07T01:07:05;15.93;;;10.85;;
42294;SDS011;27947;47.556;18.718;2024-01-07T01:09:30;16.42;;;11.23;;
42294;SDS011;27947;47.556;18.718;2024-01-07T01:11:55;18.25;;;11.27;;
42294;SDS011;27947;47.556;18.718;2024-01-07T01:14:20;16.35;;;10.98;;
42294;SDS011;27947;47.556;18.718;2024-01-07T01:16:46;15.02;;;10.52;;
42294;SDS011;27947;47.556;18.718;2024-01-07T01:19:11;14.75;;;10.43;;
42294;SDS011;27947;47.556;18.718;2024-01-07T01:21:36;13.75;;;9.95;;
42294;SDS011;27947;47.556;18.718;2024-01-07T01:24:02;17.67;;;11.05;;
42294;SDS011;27947;47.556;18.718;2024-01-07T01:26:28;16.73;;;10.77;;
42294;SDS011;27947;47.556;18.718;2024-01-07T01:28:53;17.50;;;10.52;;
42294;SDS011;27947;47.556;18.718;2024-01-07T01:31:18;17.40;;;11.27;;
42294;SDS011;27947;47.556;18.718;2024-01-07T01:33:44;16.27;;;10.45;;
42294;SDS011;27947;47.556;18.718;2024-01-07T01:36:09;16.80;;;11.10;;
42294;SDS011;27947;47.556;18.718;2024-01-07T01:38:34;18.58;;;12.13;;
42294;SDS011;27947;47.556;18.718;2024-01-07T01:41:00;17.85;;;11.20;;
42294;SDS011;27947;47.556;18.718;2024-01-07T01:43:25;19.75;;;12.82;;
42294;SDS011;27947;47.556;18.718;2024-01-07T01:45:51;19.05;;;13.10;;
42294;SDS011;27947;47.556;18.718;2024-01-07T01:48:17;19.73;;;12.32;;
42294;SDS011;27947;47.556;18.718;2024-01-07T01:50:42;19.70;;;12.20;;
42294;SDS011;27947;47.556;18.718;2024-01-07T01:53:07;16.23;;;11.60;;
42294;SDS011;27947;47.556;18.718;2024-01-07T01:55:33;17.42;;;12.02;;
42294;SDS011;27947;47.556;18.718;2024-01-07T01:57:59;19.17;;;12.65;;
42294;SDS011;27947;47.556;18.718;2024-01-07T02:00:28;22.25;;;12.52;;
42294;SDS011;27947;47.556;18.718;2024-01-07T02:02:54;18.45;;;12.20;;
42294;SDS011;27947;47.556;18.718;2024-01-07T02:05:19;18.63;;;12.38;;
42294;SDS011;27947;47.556;18.718;2024-01-07T02:07:44;18.42;;;13.05;;
42294;SDS011;27947;47.556;18.718;2024-01-07T02:10:10;21.35;;;13.75;;
42294;SDS011;27947;47.556;18.718;2024-01-07T02:12:36;17.10;;;11.35;;
42294;SDS011;27947;47.556;18.718;2024-01-07T02:15:01;15.88;;;10.48;;
42294;SDS011;27947;47.556;18.718;2024-01-07T02:17:26;17.23;;;10.55;;
42294;SDS011;27947;47.556;18.718;2024-01-07T02:19:52;15.93;;;11.35;;
42294;SDS011;27947;47.556;18.718;2024-01-07T02:22:18;18.20;;;11.10;;
42294;SDS011;27947;47.556;18.718;2024-01-07T02:24:44;16.52;;;11.18;;
42294;SDS011;27947;47.556;18.718;2024-01-07T02:27:09;16.48;;;10.60;;
42294;SDS011;27947;47.556;18.718;2024-01-07T02:29:34;15.98;;;11.05;;
42294;SDS011;27947;47.556;18.718;2024-01-07T02:31:59;18.08;;;11.38;;
42294;SDS011;27947;47.556;18.718;2024-01-07T02:34:25;14.50;;;9.80;;
42294;SDS011;27947;47.556;18.718;2024-01-07T02:36:50;15.13;;;10.27;;
42294;SDS011;27947;47.556;18.718;2024-01-07T02:39:15;14.85;;;10.48;;
42294;SDS011;27947;47.556;18.718;2024-01-07T02:41:40;16.42;;;9.77;;
42294;SDS011;27947;47.556;18.718;2024-01-07T02:44:06;12.90;;;8.60;;
42294;SDS011;27947;47.556;18.718;2024-01-07T02:46:31;11.68;;;8.25;;
42294;SDS011;27947;47.556;18.718;2024-01-07T02:48:56;11.85;;;8.40;;
42294;SDS011;27947;47.556;18.718;2024-01-07T02:51:21;11.80;;;8.48;;
42294;SDS011;27947;47.556;18.718;2024-01-07T02:53:47;11.90;;;8.10;;
42294;SDS011;27947;47.556;18.718;2024-01-07T02:56:12;10.05;;;7.55;;
42294;SDS011;27947;47.556;18.718;2024-01-07T02:58:37;11.75;;;8.70;;
42294;SDS011;27947;47.556;18.718;2024-01-07T03:01:03;12.05;;;8.77;;
42294;SDS011;27947;47.556;18.718;2024-01-07T03:03:29;12.52;;;8.25;;
42294;SDS011;27947;47.556;18.718;2024-01-07T03:05:54;11.50;;;8.45;;
42294;SDS011;27947;47.556;18.718;2024-01-07T03:08:19;13.07;;;8.57;;
42294;SDS011;27947;47.556;18.718;2024-01-07T03:10:44;14.52;;;9.23;;
42294;SDS011;27947;47.556;18.718;2024-01-07T03:13:10;15.02;;;9.43;;
42294;SDS011;27947;47.556;18.718;2024-01-07T03:15:35;13.52;;;9.70;;
42294;SDS011;27947;47.556;18.718;2024-01-07T03:18:01;16.95;;;10.40;;
42294;SDS011;27947;47.556;18.718;2024-01-07T03:20:26;14.18;;;10.65;;
42294;SDS011;27947;47.556;18.718;2024-01-07T03:22:52;16.42;;;10.88;;
42294;SDS011;27947;47.556;18.718;2024-01-07T03:25:17;18.80;;;11.27;;
42294;SDS011;27947;47.556;18.718;2024-01-07T03:27:42;16.33;;;10.80;;
42294;SDS011;27947;47.556;18.718;2024-01-07T03:30:08;21.10;;;10.98;;
42294;SDS011;27947;47.556;18.718;2024-01-07T03:32:34;16.50;;;11.07;;
42294;SDS011;27947;47.556;18.718;2024-01-07T03:35:00;13.45;;;9.82;;
42294;SDS011;27947;47.556;18.718;2024-01-07T03:37:25;13.48;;;9.55;;
42294;SDS011;27947;47.556;18.718;2024-01-07T03:39:50;14.15;;;9.88;;
42294;SDS011;27947;47.556;18.718;2024-01-07T03:42:15;12.90;;;9.27;;
42294;SDS011;27947;47.556;18.718;2024-01-07T03:44:41;12.68;;;8.95;;
42294;SDS011;27947;47.556;18.718;2024-01-07T03:47:06;11.95;;;8.77;;
42294;SDS011;27947;47.556;18.718;2024-01-07T03:49:31;12.40;;;7.90;;
42294;SDS011;27947;47.556;18.718;2024-01-07T03:51:57;11.15;;;7.93;;
42294;SDS011;27947;47.556;18.718;2024-01-07T03:54:22;11.10;;;7.15;;
42294;SDS011;27947;47.556;18.718;2024-01-07T03:56:47;8.25;;;6.35;;
42294;SDS011;27947;47.556;18.718;2024-01-07T03:59:12;9.82;;;6.88;;
42294;SDS011;27947;47.556;18.718;2024-01-07T04:01:38;8.77;;;6.40;;
42294;SDS011;27947;47.556;18.718;2024-01-07T04:04:03;9.30;;;6.05;;
42294;SDS011;27947;47.556;18.718;2024-01-07T04:06:28;10.48;;;6.75;;
42294;SDS011;27947;47.556;18.718;2024-01-07T04:08:53;9.48;;;6.45;;
42294;SDS011;27947;47.556;18.718;2024-01-07T04:11:19;9.93;;;6.60;;
42294;SDS011;27947;47.556;18.718;2024-01-07T04:13:44;9.60;;;6.50;;
42294;SDS011;27947;47.556;18.718;2024-01-07T04:16:16;9.80;;;6.45;;
42294;SDS011;27947;47.556;18.718;2024-01-07T04:18:41;8.15;;;5.65;;
42294;SDS011;27947;47.556;18.718;2024-01-07T04:21:09;8.93;;;6.07;;
42294;SDS011;27947;47.556;18.718;2024-01-07T04:23:34;9.30;;;6.50;;
42294;SDS011;27947;47.556;18.718;2024-01-07T04:25:59;9.55;;;6.18;;
42294;SDS011;27947;47.556;18.718;2024-01-07T04:28:24;9.50;;;6.18;;
42294;SDS011;27947;47.556;18.718;2024-01-07T04:30:49;7.38;;;5.47;;
42294;SDS011;27947;47.556;18.718;2024-01-07T04:33:15;9.10;;;6.18;;
42294;SDS011;27947;47.556;18.718;2024-01-07T04:35:40;8.90;;;6.80;;
42294;SDS011;27947;47.556;18.718;2024-01-07T04:38:06;12.25;;;8.07;;
42294;SDS011;27947;47.556;18.718;2024-01-07T04:40:31;14.45;;;8.68;;
42294;SDS011;27947;47.556;18.718;2024-01-07T04:42:56;12.48;;;8.57;;
42294;SDS011;27947;47.556;18.718;2024-01-07T04:45:21;12.93;;;8.75;;
42294;SDS011;27947;47.556;18.718;2024-01-07T04:47:47;12.25;;;8.35;;
42294;SDS011;27947;47.556;18.718;2024-01-07T04:50:12;12.40;;;7.43;;
42294;SDS011;27947;47.556;18.718;2024-01-07T04:52:40;10.45;;;7.53;;
42294;SDS011;27947;47.556;18.718;2024-01-07T04:55:05;12.40;;;8.77;;
42294;SDS011;27947;47.556;18.718;2024-01-07T04:57:30;13.65;;;8.77;;
42294;SDS011;27947;47.556;18.718;2024-01-07T04:59:56;12.85;;;9.50;;
42294;SDS011;27947;47.556;18.718;2024-01-07T05:02:21;12.10;;;8.38;;
42294;SDS011;27947;47.556;18.718;2024-01-07T05:04:46;12.07;;;8.30;;
42294;SDS011;27947;47.556;18.718;2024-01-07T05:07:11;13.23;;;7.82;;
42294;SDS011;27947;47.556;18.718;2024-01-07T05:09:37;10.15;;;7.18;;
42294;SDS011;27947;47.556;18.718;2024-01-07T05:12:02;9.77;;;6.53;;
42294;SDS011;27947;47.556;18.718;2024-01-07T05:14:27;10.20;;;7.47;;
42294;SDS011;27947;47.556;18.718;2024-01-07T05:16:53;9.80;;;7.15;;
42294;SDS011;27947;47.556;18.718;2024-01-07T05:19:19;8.20;;;6.32;;
42294;SDS011;27947;47.556;18.718;2024-01-07T05:21:44;9.10;;;7.03;;
42294;SDS011;27947;47.556;18.718;2024-01-07T05:24:09;9.07;;;6.97;;
42294;SDS011;27947;47.556;18.718;2024-01-07T05:26:41;8.60;;;6.32;;
42294;SDS011;27947;47.556;18.718;2024-01-07T05:31:32;9.27;;;6.83;;
42294;SDS011;27947;47.556;18.718;2024-01-07T05:33:57;11.02;;;8.27;;
42294;SDS011;27947;47.556;18.718;2024-01-07T05:36:22;12.98;;;8.27;;
42294;SDS011;27947;47.556;18.718;2024-01-07T05:38:48;10.80;;;8.40;;
42294;SDS011;27947;47.556;18.718;2024-01-07T05:41:13;12.48;;;8.10;;
42294;SDS011;27947;47.556;18.718;2024-01-07T05:43:38;11.23;;;8.35;;
42294;SDS011;27947;47.556;18.718;2024-01-07T05:46:03;10.30;;;7.60;;
42294;SDS011;27947;47.556;18.718;2024-01-07T05:48:29;10.80;;;8.18;;
42294;SDS011;27947;47.556;18.718;2024-01-07T05:50:54;10.80;;;7.65;;
42294;SDS011;27947;47.556;18.718;2024-01-07T05:53:19;9.00;;;7.43;;
42294;SDS011;27947;47.556;18.718;2024-01-07T05:55:44;8.30;;;6.72;;
42294;SDS011;27947;47.556;18.718;2024-01-07T05:58:10;9.27;;;6.72;;
42294;SDS011;27947;47.556;18.718;2024-01-07T06:00:36;9.27;;;6.82;;
42294;SDS011;27947;47.556;18.718;2024-01-07T06:03:01;7.65;;;5.90;;
42294;SDS011;27947;47.556;18.718;2024-01-07T06:05:26;8.85;;;6.72;;
42294;SDS011;27947;47.556;18.718;2024-01-07T06:07:52;10.02;;;7.07;;
42294;SDS011;27947;47.556;18.718;2024-01-07T06:10:17;7.55;;;6.20;;
42294;SDS011;27947;47.556;18.718;2024-01-07T06:12:42;7.97;;;6.40;;
42294;SDS011;27947;47.556;18.718;2024-01-07T06:15:08;7.50;;;5.78;;
42294;SDS011;27947;47.556;18.718;2024-01-07T06:17:33;9.65;;;6.55;;
42294;SDS011;27947;47.556;18.718;2024-01-07T06:19:59;7.30;;;5.75;;
42294;SDS011;27947;47.556;18.718;2024-01-07T06:22:24;7.35;;;5.90;;
42294;SDS011;27947;47.556;18.718;2024-01-07T06:24:49;7.40;;;5.78;;
42294;SDS011;27947;47.556;18.718;2024-01-07T06:27:14;7.05;;;5.35;;
42294;SDS011;27947;47.556;18.718;2024-01-07T06:29:40;6.88;;;4.97;;
42294;SDS011;27947;47.556;18.718;2024-01-07T06:32:05;6.53;;;5.30;;
42294;SDS011;27947;47.556;18.718;2024-01-07T06:34:30;6.50;;;4.93;;
42294;SDS011;27947;47.556;18.718;2024-01-07T06:36:55;5.55;;;4.80;;
42294;SDS011;27947;47.556;18.718;2024-01-07T06:39:21;6.55;;;4.70;;
42294;SDS011;27947;47.556;18.718;2024-01-07T06:41:46;6.07;;;4.93;;
42294;SDS011;27947;47.556;18.718;2024-01-07T06:44:11;5.93;;;4.90;;
42294;SDS011;27947;47.556;18.718;2024-01-07T06:46:37;7.05;;;5.13;;
42294;SDS011;27947;47.556;18.718;2024-01-07T06:49:02;7.35;;;4.88;;
42294;SDS011;27947;47.556;18.718;2024-01-07T06:51:27;7.88;;;5.22;;
42294;SDS011;27947;47.556;18.718;2024-01-07T06:53:53;7.75;;;5.40;;
42294;SDS011;27947;47.556;18.718;2024-01-07T06:56:18;6.63;;;4.85;;
42294;SDS011;27947;47.556;18.718;2024-01-07T06:58:43;8.18;;;5.60;;
42294;SDS011;27947;47.556;18.718;2024-01-07T07:01:08;7.20;;;5.70;;
42294;SDS011;27947;47.556;18.718;2024-01-07T07:03:34;7.68;;;5.75;;
42294;SDS011;27947;47.556;18.718;2024-01-07T07:05:59;6.93;;;5.55;;
42294;SDS011;27947;47.556;18.718;2024-01-07T07:08:24;8.32;;;6.10;;
42294;SDS011;27947;47.556;18.718;2024-01-07T07:10:49;6.85;;;5.78;;
42294;SDS011;27947;47.556;18.718;2024-01-07T07:13:15;7.45;;;5.90;;
42294;SDS011;27947;47.556;18.718;2024-01-07T07:15:40;6.80;;;5.60;;
42294;SDS011;27947;47.556;18.718;2024-01-07T07:18:05;6.97;;;5.00;;
42294;SDS011;27947;47.556;18.718;2024-01-07T07:20:31;5.70;;;5.10;;
42294;SDS011;27947;47.556;18.718;2024-01-07T07:22:56;6.80;;;5.93;;
42294;SDS011;27947;47.556;18.718;2024-01-07T07:25:22;6.22;;;5.00;;
42294;SDS011;27947;47.556;18.718;2024-01-07T07:27:47;6.38;;;5.43;;
42294;SDS011;27947;47.556;18.718;2024-01-07T07:30:12;6.75;;;5.70;;
42294;SDS011;27947;47.556;18.718;2024-01-07T07:32:41;6.78;;;5.32;;
42294;SDS011;27947;47.556;18.718;2024-01-07T07:35:09;5.67;;;4.73;;
42294;SDS011;27947;47.556;18.718;2024-01-07T07:37:34;5.97;;;4.82;;
42294;SDS011;27947;47.556;18.718;2024-01-07T07:40:00;6.00;;;4.85;;
42294;SDS011;27947;47.556;18.718;2024-01-07T07:42:25;5.18;;;4.57;;
42294;SDS011;27947;47.556;18.718;2024-01-07T07:44:50;7.13;;;4.85;;
42294;SDS011;27947;47.556;18.718;2024-01-07T07:47:15;6.90;;;4.65;;
42294;SDS011;27947;47.556;18.718;2024-01-07T07:49:40;6.30;;;4.57;;
42294;SDS011;27947;47.556;18.718;2024-01-07T07:52:09;6.03;;;4.72;;
42294;SDS011;27947;47.556;18.718;2024-01-07T07:54:34;5.85;;;4.60;;
42294;SDS011;27947;47.556;18.718;2024-01-07T07:57:01;6.00;;;4.40;;
42294;SDS011;27947;47.556;18.718;2024-01-07T07:59:27;4.30;;;3.88;;
42294;SDS011;27947;47.556;18.718;2024-01-07T08:01:52;6.63;;;4.75;;
42294;SDS011;27947;47.556;18.718;2024-01-07T08:04:17;5.75;;;4.18;;
42294;SDS011;27947;47.556;18.718;2024-01-07T08:06:43;7.43;;;4.10;;
42294;SDS011;27947;47.556;18.718;2024-01-07T08:09:10;5.57;;;4.32;;
42294;SDS011;27947;47.556;18.718;2024-01-07T08:11:35;4.53;;;3.75;;
42294;SDS011;27947;47.556;18.718;2024-01-07T08:14:01;4.97;;;4.22;;
42294;SDS011;27947;47.556;18.718;2024-01-07T08:16:27;4.55;;;3.58;;
42294;SDS011;27947;47.556;18.718;2024-01-07T08:18:52;4.22;;;3.25;;
42294;SDS011;27947;47.556;18.718;2024-01-07T08:21:17;4.45;;;3.33;;
42294;SDS011;27947;47.556;18.718;2024-01-07T08:23:42;3.78;;;3.10;;
42294;SDS011;27947;47.556;18.718;2024-01-07T08:26:08;4.53;;;3.47;;
42294;SDS011;27947;47.556;18.718;2024-01-07T08:28:33;5.43;;;3.53;;
42294;SDS011;27947;47.556;18.718;2024-01-07T08:30:58;4.32;;;3.55;;
42294;SDS011;27947;47.556;18.718;2024-01-07T08:33:24;4.65;;;3.33;;
42294;SDS011;27947;47.556;18.718;2024-01-07T08:35:49;5.47;;;3.40;;
42294;SDS011;27947;47.556;18.718;2024-01-07T08:38:14;3.67;;;2.88;;
42294;SDS011;27947;47.556;18.718;2024-01-07T08:40:39;3.70;;;2.80;;
42294;SDS011;27947;47.556;18.718;2024-01-07T08:43:05;3.83;;;2.70;;
42294;SDS011;27947;47.556;18.718;2024-01-07T08:45:30;3.70;;;2.20;;
42294;SDS011;27947;47.556;18.718;2024-01-07T08:47:55;2.90;;;2.05;;
42294;SDS011;27947;47.556;18.718;2024-01-07T08:50:21;2.83;;;1.88;;
42294;SDS011;27947;47.556;18.718;2024-01-07T08:52:46;2.50;;;1.70;;
42294;SDS011;27947;47.556;18.718;2024-01-07T08:55:12;1.90;;;1.40;;
42294;SDS011;27947;47.556;18.718;2024-01-07T08:57:37;1.42;;;1.17;;
42294;SDS011;27947;47.556;18.718;2024-01-07T09:00:03;5.00;;;1.45;;
42294;SDS011;27947;47.556;18.718;2024-01-07T09:02:29;2.72;;;1.23;;
42294;SDS011;27947;47.556;18.718;2024-01-07T09:04:55;3.22;;;1.52;;
42294;SDS011;27947;47.556;18.718;2024-01-07T09:07:22;3.65;;;1.50;;
42294;SDS011;27947;47.556;18.718;2024-01-07T09:09:48;2.03;;;1.40;;
42294;SDS011;27947;47.556;18.718;2024-01-07T09:12:13;37.28;;;3.00;;
42294;SDS011;27947;47.556;18.718;2024-01-07T09:14:38;2.33;;;1.40;;
42294;SDS011;27947;47.556;18.718;2024-01-07T09:17:04;2.38;;;1.33;;
42294;SDS011;27947;47.556;18.718;2024-01-07T09:19:29;2.60;;;1.52;;
42294;SDS011;27947;47.556;18.718;2024-01-07T09:21:54;2.45;;;1.45;;
42294;SDS011;27947;47.556;18.718;2024-01-07T09:24:20;2.22;;;1.50;;
42294;SDS011;27947;47.556;18.718;2024-01-07T09:26:45;2.47;;;1.60;;
42294;SDS011;27947;47.556;18.718;2024-01-07T09:29:11;2.85;;;1.50;;
42294;SDS011;27947;47.556;18.718;2024-01-07T09:31:36;1.52;;;1.17;;
42294;SDS011;27947;47.556;18.718;2024-01-07T09:34:02;1.42;;;1.30;;
42294;SDS011;27947;47.556;18.718;2024-01-07T09:36:27;1.90;;;1.15;;
42294;SDS011;27947;47.556;18.718;2024-01-07T09:38:52;1.77;;;1.42;;
42294;SDS011;27947;47.556;18.718;2024-01-07T09:41:19;2.13;;;1.48;;
42294;SDS011;27947;47.556;18.718;2024-01-07T09:43:44;1.70;;;1.40;;
42294;SDS011;27947;47.556;18.718;2024-01-07T09:46:09;3.70;;;1.63;;
42294;SDS011;27947;47.556;18.718;2024-01-07T09:48:35;3.58;;;1.70;;
42294;SDS011;27947;47.556;18.718;2024-01-07T09:51:00;2.72;;;1.70;;
42294;SDS011;27947;47.556;18.718;2024-01-07T09:53:25;2.80;;;1.90;;
42294;SDS011;27947;47.556;18.718;2024-01-07T09:58:23;2.92;;;1.92;;
42294;SDS011;27947;47.556;18.718;2024-01-07T10:00:50;2.83;;;2.10;;
42294;SDS011;27947;47.556;18.718;2024-01-07T10:03:16;2.00;;;1.77;;
42294;SDS011;27947;47.556;18.718;2024-01-07T10:05:41;5.45;;;2.00;;
42294;SDS011;27947;47.556;18.718;2024-01-07T10:08:06;2.45;;;1.85;;
42294;SDS011;27947;47.556;18.718;2024-01-07T10:10:33;2.67;;;2.08;;
42294;SDS011;27947;47.556;18.718;2024-01-07T10:12:59;3.08;;;2.10;;
42294;SDS011;27947;47.556;18.718;2024-01-07T10:15:25;2.60;;;2.08;;
42294;SDS011;27947;47.556;18.718;2024-01-07T10:17:54;2.65;;;1.70;;
42294;SDS011;27947;47.556;18.718;2024-01-07T10:20:19;2.05;;;1.55;;
42294;SDS011;27947;47.556;18.718;2024-01-07T10:22:51;4.13;;;1.83;;
42294;SDS011;27947;47.556;18.718;2024-01-07T10:25:16;4.32;;;1.75;;
42294;SDS011;27947;47.556;18.718;2024-01-07T10:27:42;2.88;;;1.75;;
42294;SDS011;27947;47.556;18.718;2024-01-07T10:30:07;2.85;;;1.80;;
42294;SDS011;27947;47.556;18.718;2024-01-07T10:32:35;2.72;;;1.77;;
42294;SDS011;27947;47.556;18.718;2024-01-07T10:35:03;3.00;;;1.98;;
42294;SDS011;27947;47.556;18.718;2024-01-07T10:37:30;2.38;;;1.80;;
42294;SDS011;27947;47.556;18.718;2024-01-07T10:39:57;2.17;;;1.60;;
42294;SDS011;27947;47.556;18.718;2024-01-07T10:42:26;3.38;;;2.08;;
42294;SDS011;27947;47.556;18.718;2024-01-07T10:44:51;3.00;;;2.03;;
42294;SDS011;27947;47.556;18.718;2024-01-07T10:47:16;2.85;;;1.90;;
42294;SDS011;27947;47.556;18.718;2024-01-07T10:49:44;2.50;;;1.67;;
42294;SDS011;27947;47.556;18.718;2024-01-07T10:52:12;4.07;;;2.10;;
42294;SDS011;27947;47.556;18.718;2024-01-07T10:54:38;2.88;;;1.80;;
42294;SDS011;27947;47.556;18.718;2024-01-07T10:57:07;2.38;;;1.60;;
42294;SDS011;27947;47.556;18.718;2024-01-07T10:59:34;20.35;;;6.90;;
42294;SDS011;27947;47.556;18.718;2024-01-07T11:02:00;5.35;;;3.92;;
42294;SDS011;27947;47.556;18.718;2024-01-07T11:12:15;2.78;;;1.83;;
42294;SDS011;27947;47.556;18.718;2024-01-07T11:14:41;3.72;;;2.00;;
42294;SDS011;27947;47.556;18.718;2024-01-07T11:17:10;3.47;;;1.98;;
42294;SDS011;27947;47.556;18.718;2024-01-07T11:19:35;2.20;;;1.63;;
42294;SDS011;27947;47.556;18.718;2024-01-07T11:24:45;2.70;;;2.08;;
42294;SDS011;27947;47.556;18.718;2024-01-07T11:27:10;2.47;;;1.98;;
42294;SDS011;27947;47.556;18.718;2024-01-07T11:29:35;3.22;;;2.20;;
42294;SDS011;27947;47.556;18.718;2024-01-07T11:32:01;3.83;;;2.33;;
42294;SDS011;27947;47.556;18.718;2024-01-07T11:34:39;4.13;;;2.38;;
42294;SDS011;27947;47.556;18.718;2024-01-07T11:37:17;3.17;;;2.22;;
42294;SDS011;27947;47.556;18.718;2024-01-07T11:39:46;3.63;;;2.47;;
42294;SDS011;27947;47.556;18.718;2024-01-07T11:42:12;5.78;;;3.30;;
42294;SDS011;27947;47.556;18.718;2024-01-07T11:44:37;4.47;;;2.92;;
42294;SDS011;27947;47.556;18.718;2024-01-07T11:47:06;3.50;;;2.78;;
42294;SDS011;27947;47.556;18.718;2024-01-07T11:49:32;4.65;;;3.08;;
42294;SDS011;27947;47.556;18.718;2024-01-07T11:51:57;3.90;;;2.90;;
42294;SDS011;27947;47.556;18.718;2024-01-07T11:54:22;6.28;;;3.22;;
42294;SDS011;27947;47.556;18.718;2024-01-07T11:56:47;3.83;;;2.78;;
42294;SDS011;27947;47.556;18.718;2024-01-07T11:59:13;5.97;;;2.92;;
42294;SDS011;27947;47.556;18.718;2024-01-07T12:01:38;3.95;;;2.80;;
42294;SDS011;27947;47.556;18.718;2024-01-07T12:04:03;4.38;;;2.92;;
42294;SDS011;27947;47.556;18.718;2024-01-07T12:06:28;3.72;;;2.60;;
42294;SDS011;27947;47.556;18.718;2024-01-07T12:08:54;4.35;;;2.55;;
42294;SDS011;27947;47.556;18.718;2024-01-07T12:11:19;3.40;;;2.42;;
42294;SDS011;27947;47.556;18.718;2024-01-07T12:13:44;3.95;;;2.80;;
42294;SDS011;27947;47.556;18.718;2024-01-07T12:16:10;4.80;;;3.10;;
42294;SDS011;27947;47.556;18.718;2024-01-07T12:18:38;7.05;;;3.17;;
42294;SDS011;27947;47.556;18.718;2024-01-07T12:21:04;4.05;;;2.83;;
42294;SDS011;27947;47.556;18.718;2024-01-07T12:23:33;4.68;;;3.35;;
42294;SDS011;27947;47.556;18.718;2024-01-07T12:25:59;4.22;;;3.40;;
42294;SDS011;27947;47.556;18.718;2024-01-07T12:28:31;5.45;;;3.33;;
42294;SDS011;27947;47.556;18.718;2024-01-07T12:30:57;4.90;;;3.30;;
42294;SDS011;27947;47.556;18.718;2024-01-07T12:33:22;6.38;;;3.72;;
42294;SDS011;27947;47.556;18.718;2024-01-07T12:35:47;6.38;;;4.30;;
42294;SDS011;27947;47.556;18.718;2024-01-07T12:38:13;5.78;;;4.10;;
42294;SDS011;27947;47.556;18.718;2024-01-07T12:40:38;7.65;;;3.60;;
42294;SDS011;27947;47.556;18.718;2024-01-07T12:43:04;5.10;;;4.00;;
42294;SDS011;27947;47.556;18.718;2024-01-07T12:45:32;5.90;;;4.10;;
42294;SDS011;27947;47.556;18.718;2024-01-07T12:47:57;6.90;;;4.75;;
42294;SDS011;27947;47.556;18.718;2024-01-07T12:50:26;7.68;;;4.63;;
42294;SDS011;27947;47.556;18.718;2024-01-07T12:52:54;8.65;;;4.63;;
42294;SDS011;27947;47.556;18.718;2024-01-07T12:55:20;6.40;;;4.72;;
42294;SDS011;27947;47.556;18.718;2024-01-07T12:57:45;5.63;;;4.80;;
42294;SDS011;27947;47.556;18.718;2024-01-07T13:00:10;7.07;;;4.68;;
42294;SDS011;27947;47.556;18.718;2024-01-07T13:02:36;5.85;;;4.80;;
42294;SDS011;27947;47.556;18.718;2024-01-07T13:05:01;7.10;;;4.60;;
42294;SDS011;27947;47.556;18.718;2024-01-07T13:07:28;8.35;;;4.70;;
42294;SDS011;27947;47.556;18.718;2024-01-07T13:09:53;8.63;;;4.80;;
42294;SDS011;27947;47.556;18.718;2024-01-07T13:12:18;8.57;;;4.53;;
42294;SDS011;27947;47.556;18.718;2024-01-07T13:14:44;7.57;;;4.47;;
42294;SDS011;27947;47.556;18.718;2024-01-07T13:17:11;5.93;;;4.03;;
42294;SDS011;27947;47.556;18.718;2024-01-07T13:19:36;6.15;;;4.35;;
42294;SDS011;27947;47.556;18.718;2024-01-07T13:22:02;7.47;;;5.10;;
42294;SDS011;27947;47.556;18.718;2024-01-07T13:24:27;7.25;;;4.40;;
42294;SDS011;27947;47.556;18.718;2024-01-07T13:26:53;6.45;;;4.53;;
42294;SDS011;27947;47.556;18.718;2024-01-07T13:29:18;7.43;;;4.70;;
42294;SDS011;27947;47.556;18.718;2024-01-07T13:31:43;7.32;;;4.90;;
42294;SDS011;27947;47.556;18.718;2024-01-07T13:34:08;7.15;;;4.60;;
42294;SDS011;27947;47.556;18.718;2024-01-07T13:36:34;7.03;;;4.63;;
42294;SDS011;27947;47.556;18.718;2024-01-07T13:38:59;6.53;;;4.18;;
42294;SDS011;27947;47.556;18.718;2024-01-07T13:41:24;6.65;;;4.60;;
42294;SDS011;27947;47.556;18.718;2024-01-07T13:43:53;10.93;;;4.38;;
42294;SDS011;27947;47.556;18.718;2024-01-07T13:46:21;6.03;;;4.05;;
42294;SDS011;27947;47.556;18.718;2024-01-07T13:48:48;6.88;;;4.15;;
42294;SDS011;27947;47.556;18.718;2024-01-07T13:51:13;6.15;;;4.30;;
42294;SDS011;27947;47.556;18.718;2024-01-07T13:53:38;7.78;;;4.25;;
42294;SDS011;27947;47.556;18.718;2024-01-07T13:56:04;6.13;;;4.25;;
42294;SDS011;27947;47.556;18.718;2024-01-07T13:58:29;8.82;;;3.88;;
42294;SDS011;27947;47.556;18.718;2024-01-07T14:00:54;7.60;;;4.45;;
42294;SDS011;27947;47.556;18.718;2024-01-07T14:03:20;5.28;;;3.67;;
42294;SDS011;27947;47.556;18.718;2024-01-07T14:05:45;6.55;;;3.47;;
42294;SDS011;27947;47.556;18.718;2024-01-07T14:08:11;5.60;;;4.13;;
42294;SDS011;27947;47.556;18.718;2024-01-07T14:10:36;5.90;;;3.90;;
42294;SDS011;27947;47.556;18.718;2024-01-07T14:13:02;9.77;;;4.65;;
42294;SDS011;27947;47.556;18.718;2024-01-07T14:15:27;7.45;;;4.35;;
42294;SDS011;27947;47.556;18.718;2024-01-07T14:17:53;7.38;;;4.30;;
42294;SDS011;27947;47.556;18.718;2024-01-07T14:20:18;10.50;;;4.55;;
42294;SDS011;27947;47.556;18.718;2024-01-07T14:22:44;6.35;;;4.13;;
42294;SDS011;27947;47.556;18.718;2024-01-07T14:25:09;6.05;;;4.10;;
42294;SDS011;27947;47.556;18.718;2024-01-07T14:27:34;6.47;;;4.15;;
42294;SDS011;27947;47.556;18.718;2024-01-07T14:29:59;6.78;;;4.45;;
42294;SDS011;27947;47.556;18.718;2024-01-07T14:32:25;9.77;;;4.72;;
42294;SDS011;27947;47.556;18.718;2024-01-07T14:34:50;7.25;;;4.78;;